Recent forum postings ...
Today
Change wake turbulence after filing FP
Yesterday
KLM-VA site "not responding", is my flight toast?
3 days ago
Fly KLM Mon CTL
2021-04-09
SCHEDULE FLIGHT BOEING 737
2021-04-08
Law and rules in KLM VA
2021-04-04
Flying a Tour.


 
Aircraft IdentFlightrulesType of Flight
KLM207YX
NumberType of AircraftWake turbulenceEquipmentTransponder Type
1B738LSC
Departure AerodromeDeparture Time
KDEC1300
Cruising speedFlight level
N260F240
Route
MLDBL J71 HUMBO



Destination AerodromeTotal EETAlternative Aerodrome
KMEM0030KMEM
Other information
KLM VA

Explanation of the IVAO flightplan

Decatur (KDEC), United States

METAR
KDEC 081254Z 20006KT 10SM OVC021 12/11 A2960 RMK AO2 SLP020 T01220106

WINDSSW at 7 mph
VISIBILITY10 miles
CONDITIONS
CLOUDSovercast
TEMP54°F (12°C)
DEWPT52°F (11°C)
HUMIDITY94%
BAROMETER1002 hPa (29.60 in Hg)

Memphis Intl (KMEM), United States

METAR
KMEM 081354Z 23006KT 10SM CLR 16/08 A2976 RMK AO2 SLP074 T01560078 $

WINDSW at 7 mph
VISIBILITY10 miles
CONDITIONS
CLOUDSclear skies
TEMP61°F (16°C)
DEWPT46°F (8°C)
HUMIDITY59%
BAROMETER1008 hPa (29.76 in Hg)

RUNWAYS

RunwayDesignatorSurfaceHeadingLengthWidthAltitudeILSILS-Freq.Glidescope Pitch
18CENTERCONCRETE179.013394.86 ft45.72 ft103.94 ftCAT III ILS/DME 36C110.53
18LEFTCONCRETE179.012747.77 ft45.72 ft103.94 ftCAT III ILS/DME 36R111.353
18RIGHTCONCRETE178.992845.31 ft45.72 ft103.94 ftCAT III ILS/DME 36L108.93
Registration TimeGroundspeedAltitudeTransponderHeadingLongitudeLatitudeOn ground
13:03 08-04-20210 kts690 ft200060-88.875239.8409Yes
13:060 kts690 ft200060-88.875239.8409Yes
13:090 kts690 ft200060-88.875239.8409Yes
13:120 kts690 ft200060-88.875239.8409Yes
13:150 kts690 ft200060-88.875239.8409Yes
13:18209 kts3400 ft2000172-88.833539.8082No
13:21269 kts7210 ft2000143-88.672539.6353No
13:24267 kts8968 ft2000199-88.702939.4288No
13:27267 kts8968 ft2000199-88.798839.2193No
13:30270 kts8946 ft2000200-88.89539.0078No
13:33270 kts8948 ft2000200-88.99138.7952No
13:36270 kts8947 ft2000200-89.059938.6418No
13:39270 kts8927 ft2000199-89.15538.4289No
13:42269 kts8945 ft2000192-89.212638.208No
13:45272 kts8929 ft2000191-89.268237.9867No
13:48272 kts8931 ft2000191-89.323737.7643No
13:51272 kts8931 ft2000191-89.378837.5419No
13:54272 kts8952 ft2000191-89.433837.3192No
13:57272 kts8952 ft2000191-89.487737.0994No
14:00275 kts8964 ft2000191-89.542336.875No
14:03277 kts8955 ft2000230-89.45936.6968No
14:06274 kts8958 ft2000192-89.628436.5329No
14:09275 kts8928 ft2000192-89.690236.3095No
14:12275 kts8952 ft2000191-89.751636.0862No
14:15270 kts7967 ft2000191-89.812535.8634No
14:18260 kts5577 ft2000191-89.871135.6477No
14:21198 kts3165 ft2000191-89.918135.4736No
14:24201 kts3162 ft2000191-89.962235.3099No
14:27201 kts3163 ft2000176-89.982535.2019No
14:30201 kts3163 ft2000176-89.982535.2019No
14:33131 kts1170 ft2000185-89.97535.0888No
14:3616 kts344 ft20003-89.978235.043Yes
14:390 kts344 ft2000268-89.979235.0437Yes
14:420 kts344 ft2000268-89.979235.0437Yes